Time;durP1;ratioP1;P1;durP2;ratioP2;P2;SDS_P1;SDS_P2;PMS_P1;PMS_P2;Temp;Humidity;BMP_temperature;BMP_pressure;BME280_temperature;BME280_humidity;BME280_pressure;Samples;Min_cycle;Max_cycle;Signal;HPM_P1;HPM_P2
2024/04/19 00:00:48;;;;;;;3.60;3.30;;;4.40;99.90;;;;;;6372875;22;20763;-86
2024/04/19 00:03:17;;;;;;;4.00;3.60;;;4.50;99.90;;;;;;6374040;22;20323;-87
2024/04/19 00:05:46;;;;;;;4.03;3.63;;;4.50;99.90;;;;;;6376127;22;20268;-87
2024/04/19 00:08:12;;;;;;;3.80;3.40;;;4.50;99.90;;;;;;6333027;22;20229;-87
2024/04/19 00:10:41;;;;;;;4.43;3.37;;;4.50;99.90;;;;;;6333713;22;20265;-87
2024/04/19 00:13:06;;;;;;;4.63;3.63;;;4.50;99.90;;;;;;6375731;22;20752;-87
2024/04/19 00:15:35;;;;;;;3.80;3.50;;;4.40;99.90;;;;;;6376398;22;20336;-87
2024/04/19 00:18:01;;;;;;;4.83;3.43;;;4.40;99.90;;;;;;6375484;22;20221;-87
2024/04/19 00:20:34;;;;;;;3.83;3.43;;;4.40;99.90;;;;;;6376030;22;20328;-87
2024/04/19 00:23:00;;;;;;;3.73;3.40;;;4.40;99.90;;;;;;6375968;22;20237;-87
2024/04/19 00:25:29;;;;;;;4.33;3.47;;;4.30;99.90;;;;;;6376536;22;20320;-87
2024/04/19 00:27:58;;;;;;;4.00;3.60;;;4.30;99.90;;;;;;6332190;22;20229;-86
2024/04/19 00:30:23;;;;;;;3.17;2.87;;;4.20;99.90;;;;;;6375454;22;20346;-87
2024/04/19 00:32:52;;;;;;;3.80;3.50;;;4.10;99.90;;;;;;6375465;22;20225;-87
2024/04/19 00:35:19;;;;;;;3.53;3.23;;;4.10;99.90;;;;;;6376624;22;20592;-87
2024/04/19 00:37:50;;;;;;;3.90;3.50;;;4.00;99.90;;;;;;6332065;22;20225;-87
2024/04/19 00:40:21;;;;;;;4.03;3.63;;;4.00;99.90;;;;;;6375003;22;20357;-87
2024/04/19 00:42:51;;;;;;;4.10;3.70;;;4.00;99.90;;;;;;6330150;22;20281;-87
2024/04/19 00:45:32;;;;;;;3.93;3.40;;;4.00;99.90;;;;;;6374174;22;20229;-87
2024/04/19 00:48:01;;;;;;;3.83;3.40;;;4.00;99.90;;;;;;6375387;22;20256;-86
2024/04/19 00:50:31;;;;;;;4.87;3.57;;;4.00;99.90;;;;;;6375256;22;20305;-87
2024/04/19 00:53:03;;;;;;;6.63;3.50;;;3.90;99.90;;;;;;6374662;22;20225;-86
2024/04/19 00:55:31;;;;;;;4.33;3.67;;;3.80;99.90;;;;;;6373345;22;20268;-87
2024/04/19 00:58:00;;;;;;;3.43;3.13;;;3.80;99.90;;;;;;6375118;22;20297;-87
2024/04/19 01:00:26;;;;;;;5.13;3.67;;;3.80;99.90;;;;;;6373773;22;20271;-87
2024/04/19 01:02:56;;;;;;;3.53;3.23;;;3.80;99.90;;;;;;6372409;22;20230;-87
2024/04/19 01:05:22;;;;;;;4.10;3.60;;;3.80;99.90;;;;;;6375354;22;20233;-87
2024/04/19 01:07:51;;;;;;;3.77;3.43;;;3.80;99.90;;;;;;6374718;22;20234;-87
2024/04/19 01:10:20;;;;;;;3.97;3.57;;;3.80;99.90;;;;;;6375379;22;20343;-87
2024/04/19 01:12:48;;;;;;;4.17;3.77;;;3.80;99.90;;;;;;6331870;22;20226;-87
2024/04/19 01:15:15;;;;;;;4.03;3.63;;;3.80;99.90;;;;;;6376102;22;20301;-87
2024/04/19 01:17:44;;;;;;;3.73;3.37;;;3.80;99.90;;;;;;6374275;22;20277;-87
2024/04/19 01:20:10;;;;;;;3.70;3.27;;;3.80;99.90;;;;;;6375864;22;20345;-87
2024/04/19 01:22:39;;;;;;;3.77;3.40;;;3.80;99.90;;;;;;6374412;22;20277;-86
2024/04/19 01:25:10;;;;;;;4.27;3.63;;;3.80;99.90;;;;;;6375049;22;20233;-87
2024/04/19 01:27:42;;;;;;;3.60;3.30;;;3.80;99.90;;;;;;6374887;22;20285;-87
2024/04/19 01:30:09;;;;;;;3.77;3.13;;;3.80;99.90;;;;;;6376009;22;20288;-87
2024/04/19 01:32:38;;;;;;;3.80;3.40;;;3.80;99.90;;;;;;6331993;22;20355;-87
2024/04/19 01:35:05;;;;;;;3.83;3.40;;;3.80;99.90;;;;;;6374621;22;20233;-87
2024/04/19 01:37:33;;;;;;;4.77;3.63;;;3.80;99.90;;;;;;6374944;22;20764;-87
2024/04/19 01:39:59;;;;;;;3.73;3.30;;;3.70;99.90;;;;;;6293548;22;20264;-87
2024/04/19 01:42:28;;;;;;;3.67;3.37;;;3.70;99.90;;;;;;6373173;22;20225;-87
2024/04/19 01:44:56;;;;;;;4.10;3.70;;;3.70;99.90;;;;;;6373589;22;20346;-87
2024/04/19 01:47:25;;;;;;;4.00;3.60;;;3.70;99.90;;;;;;6374426;22;20580;-87
2024/04/19 01:49:51;;;;;;;3.83;3.43;;;3.80;99.90;;;;;;6331426;22;20242;-87
2024/04/19 01:52:20;;;;;;;4.10;3.70;;;3.80;99.90;;;;;;6328734;22;20289;-87
2024/04/19 01:54:45;;;;;;;5.00;3.67;;;3.80;99.90;;;;;;6337516;22;20273;-87
2024/04/19 01:57:14;;;;;;;4.13;3.67;;;3.70;99.90;;;;;;6374569;22;20302;-87
2024/04/19 01:59:40;;;;;;;4.13;3.73;;;3.70;99.90;;;;;;6332272;22;20238;-87
2024/04/19 02:02:11;;;;;;;4.60;4.10;;;3.70;99.90;;;;;;6374136;22;20268;-88
2024/04/19 02:04:37;;;;;;;4.13;3.50;;;3.60;99.90;;;;;;6374976;22;20222;-89
2024/04/19 02:07:06;;;;;;;4.30;3.90;;;3.60;99.90;;;;;;6373259;22;20229;-87
2024/04/19 02:09:33;;;;;;;4.80;4.00;;;3.50;99.90;;;;;;6372915;22;20297;-87
2024/04/19 02:12:02;;;;;;;4.37;3.97;;;3.60;99.90;;;;;;6374579;22;20271;-86
2024/04/19 02:14:28;;;;;;;5.70;4.10;;;3.60;99.90;;;;;;6331370;22;20225;-87
2024/04/19 02:16:57;;;;;;;5.37;3.90;;;3.60;99.90;;;;;;6331634;22;20214;-86
2024/04/19 02:19:26;;;;;;;4.93;4.27;;;3.60;99.90;;;;;;6374556;22;20794;-86
2024/04/19 02:21:55;;;;;;;4.80;4.30;;;3.70;99.90;;;;;;6373691;22;20226;-87
2024/04/19 02:24:21;;;;;;;5.03;4.53;;;3.70;99.90;;;;;;6373499;22;20350;-85
2024/04/19 02:26:52;;;;;;;4.40;4.00;;;3.60;99.90;;;;;;6374923;22;20229;-86
2024/04/19 02:32:05;;;;;;;4.53;4.10;;;3.70;99.90;;;;;;6378001;22;20248;-86
2024/04/19 02:34:36;;;;;;;5.37;4.40;;;3.70;99.90;;;;;;6374663;22;20281;-86
2024/04/19 02:37:05;;;;;;;4.50;4.10;;;3.70;99.90;;;;;;6373332;22;20777;-87
2024/04/19 02:39:34;;;;;;;4.80;4.30;;;3.70;99.90;;;;;;6374302;22;20332;-87
2024/04/19 02:42:02;;;;;;;5.37;4.60;;;3.70;99.90;;;;;;6370960;22;20234;-87
2024/04/19 02:44:31;;;;;;;5.00;4.50;;;3.70;99.90;;;;;;6373839;22;20695;-87
2024/04/19 02:46:59;;;;;;;5.17;4.67;;;3.70;99.90;;;;;;6373787;22;20332;-87
2024/04/19 02:49:28;;;;;;;5.53;5.03;;;3.60;99.90;;;;;;6373738;22;20308;-87
2024/04/19 02:51:59;;;;;;;8.43;5.20;;;3.60;99.90;;;;;;6373088;22;20281;-87
2024/04/19 02:54:28;;;;;;;7.10;5.20;;;3.60;99.90;;;;;;6373908;22;20245;-87
2024/04/19 02:56:57;;;;;;;5.40;4.90;;;3.60;99.90;;;;;;6331916;22;20268;-87
2024/04/19 02:59:25;;;;;;;7.50;5.13;;;3.60;99.90;;;;;;6373604;22;20297;-87
2024/04/19 03:01:54;;;;;;;5.23;4.73;;;3.60;99.90;;;;;;6330588;22;20225;-86
2024/04/19 03:04:23;;;;;;;5.87;5.13;;;3.60;99.90;;;;;;6374301;22;20342;-87
2024/04/19 03:06:51;;;;;;;5.50;5.00;;;3.70;99.90;;;;;;6373969;22;20225;-87
2024/04/19 03:09:23;;;;;;;5.63;4.97;;;3.70;99.90;;;;;;6373589;22;20229;-87
2024/04/19 03:11:52;;;;;;;5.33;4.83;;;3.70;99.90;;;;;;6330877;22;20225;-86
2024/04/19 03:14:17;;;;;;;5.67;5.00;;;3.60;99.90;;;;;;6372768;22;20261;-86
2024/04/19 03:16:46;;;;;;;5.57;4.97;;;3.60;99.90;;;;;;6373880;22;20225;-86
2024/04/19 03:19:15;;;;;;;5.90;5.07;;;3.60;99.90;;;;;;6373837;22;20229;-87
2024/04/19 03:21:41;;;;;;;6.20;5.50;;;3.60;99.90;;;;;;6373632;22;20285;-86
2024/04/19 03:24:09;;;;;;;5.80;5.20;;;3.50;99.90;;;;;;6373961;22;20324;-87
2024/04/19 03:26:41;;;;;;;5.70;5.10;;;3.50;99.90;;;;;;6372249;22;20230;-88
2024/04/19 03:29:09;;;;;;;5.90;5.30;;;3.50;99.90;;;;;;6373256;22;20226;-86
2024/04/19 03:31:38;;;;;;;5.97;5.27;;;3.50;99.90;;;;;;6373326;22;20375;-87
2024/04/19 03:34:03;;;;;;;8.10;5.70;;;3.60;99.90;;;;;;6373696;22;20782;-87
2024/04/19 03:36:32;;;;;;;7.00;6.03;;;3.60;99.90;;;;;;6374272;22;20225;-86
2024/04/19 03:39:01;;;;;;;6.57;5.87;;;3.60;99.90;;;;;;6330580;22;20673;-87
2024/04/19 03:41:33;;;;;;;6.90;5.37;;;3.60;99.90;;;;;;6373760;22;20229;-87
2024/04/19 03:46:48;;;;;;;6.33;5.57;;;3.70;99.90;;;;;;6376576;22;20635;-87
2024/04/19 03:49:17;;;;;;;6.80;5.87;;;3.70;99.90;;;;;;6372766;22;20237;-86
2024/04/19 03:51:46;;;;;;;8.10;6.23;;;3.60;99.90;;;;;;6374347;22;20277;-87
2024/04/19 03:54:15;;;;;;;9.60;6.70;;;3.60;99.90;;;;;;6375958;22;20358;-87
2024/04/19 03:56:44;;;;;;;7.20;5.90;;;3.60;99.90;;;;;;6376673;22;20241;-86
2024/04/19 03:59:13;;;;;;;7.10;6.40;;;3.60;99.90;;;;;;6374928;22;20225;-86
2024/04/19 04:01:42;;;;;;;7.33;5.93;;;3.60;99.90;;;;;;6332748;22;20221;-86
2024/04/19 04:04:10;;;;;;;7.50;6.23;;;3.60;99.90;;;;;;6374003;22;20237;-86
2024/04/19 04:06:39;;;;;;;6.80;6.07;;;3.60;99.90;;;;;;6332375;22;20230;-87
2024/04/19 04:09:08;;;;;;;7.60;5.73;;;3.70;99.90;;;;;;6331460;22;20226;-87
2024/04/19 04:11:37;;;;;;;6.83;6.13;;;3.70;99.90;;;;;;6374059;22;20639;-87
2024/04/19 04:14:05;;;;;;;7.10;5.60;;;3.80;99.90;;;;;;6373951;22;20221;-86
2024/04/19 04:16:36;;;;;;;6.70;5.87;;;3.80;99.90;;;;;;6331854;22;20272;-86
2024/04/19 04:19:07;;;;;;;7.20;6.20;;;3.80;99.90;;;;;;6330918;22;20229;-87
2024/04/19 04:21:35;;;;;;;6.53;5.57;;;3.80;99.90;;;;;;6373548;22;20225;-89
2024/04/19 04:24:05;;;;;;;7.53;5.43;;;3.90;99.90;;;;;;6374443;22;20647;-87
2024/04/19 04:26:34;;;;;;;6.80;6.10;;;3.80;99.90;;;;;;6370827;22;20230;-88
2024/04/19 04:29:02;;;;;;;6.50;5.90;;;3.90;99.90;;;;;;6366462;22;20261;-89
2024/04/19 04:31:31;;;;;;;7.03;6.00;;;3.80;99.90;;;;;;6368217;22;20687;-90
2024/04/19 04:34:02;;;;;;;7.13;5.57;;;3.90;99.90;;;;;;6367641;22;20234;-88
2024/04/19 04:36:30;;;;;;;6.37;5.73;;;3.90;99.90;;;;;;6368041;22;20233;-87
2024/04/19 04:39:01;;;;;;;6.40;5.73;;;4.00;99.80;;;;;;6329029;22;20237;-87
2024/04/19 04:41:30;;;;;;;6.67;5.83;;;4.00;99.50;;;;;;6374224;22;20265;-87
2024/04/19 04:43:58;;;;;;;6.40;5.80;;;4.00;98.80;;;;;;6372422;22;20307;-85
2024/04/19 04:46:27;;;;;;;8.33;6.03;;;4.00;99.10;;;;;;6374817;22;20820;-85
2024/04/19 04:48:56;;;;;;;9.67;6.70;;;4.00;99.00;;;;;;6376208;22;20366;-87
2024/04/19 04:51:27;;;;;;;9.17;7.13;;;4.00;99.30;;;;;;6371737;22;20221;-88
2024/04/19 04:53:55;;;;;;;8.70;7.80;;;4.00;99.10;;;;;;6371675;22;20342;-87
2024/04/19 04:56:24;;;;;;;9.20;7.70;;;4.00;99.50;;;;;;6376507;22;20289;-88
2024/04/19 04:58:52;;;;;;;8.27;7.47;;;4.10;99.20;;;;;;6377076;22;20654;-87
2024/04/19 05:01:22;;;;;;;9.93;8.00;;;4.20;99.40;;;;;;6374573;22;20546;-88
2024/04/19 05:03:51;;;;;;;9.17;7.57;;;4.20;99.40;;;;;;6375934;22;20241;-87
2024/04/19 05:06:19;;;;;;;10.63;8.27;;;4.30;99.10;;;;;;6374665;22;20285;-87
2024/04/19 05:08:51;;;;;;;10.07;8.40;;;4.30;99.10;;;;;;6374603;22;20362;-87
2024/04/19 05:11:19;;;;;;;9.37;8.10;;;4.30;99.10;;;;;;6376145;22;20591;-87
2024/04/19 05:13:48;;;;;;;10.00;8.30;;;4.30;99.00;;;;;;6375853;22;20334;-87
2024/04/19 05:16:17;;;;;;;9.20;7.70;;;4.40;99.00;;;;;;6375807;22;20660;-87
2024/04/19 05:18:45;;;;;;;9.80;7.97;;;4.50;98.90;;;;;;6374441;22;20361;-87
2024/04/19 05:21:14;;;;;;;9.73;8.73;;;4.50;98.80;;;;;;6327950;22;20226;-87
2024/04/19 05:23:43;;;;;;;8.37;7.50;;;4.50;98.30;;;;;;6368618;22;20289;-87
2024/04/19 05:26:14;;;;;;;10.77;7.83;;;4.50;98.50;;;;;;6369169;22;20222;-87
2024/04/19 05:28:44;;;;;;;8.43;7.50;;;4.60;98.60;;;;;;6370849;22;21021;-87
2024/04/19 05:31:12;;;;;;;8.83;7.37;;;4.60;98.40;;;;;;6372437;22;20876;-87
2024/04/19 05:33:42;;;;;;;8.77;7.30;;;4.70;98.00;;;;;;6370534;22;20801;-88
2024/04/19 05:36:10;;;;;;;8.70;7.77;;;4.70;97.60;;;;;;6371545;22;20520;-88
2024/04/19 05:38:39;;;;;;;8.33;7.30;;;4.70;97.60;;;;;;6326155;22;20268;-88
2024/04/19 05:41:07;;;;;;;9.70;7.73;;;4.70;98.00;;;;;;6367193;22;20305;-86
2024/04/19 05:43:38;;;;;;;13.60;7.50;;;4.80;98.10;;;;;;6370786;22;20289;-86
2024/04/19 05:46:07;;;;;;;8.00;7.13;;;4.80;98.40;;;;;;6373881;22;20241;-87
2024/04/19 05:48:36;;;;;;;9.43;7.23;;;4.80;98.20;;;;;;6374365;22;20288;-87
2024/04/19 05:51:04;;;;;;;8.40;7.17;;;4.90;97.40;;;;;;6373329;22;20819;-87
2024/04/19 05:53:33;;;;;;;8.60;7.37;;;4.80;97.60;;;;;;6371160;22;20765;-89
2024/04/19 05:56:02;;;;;;;9.47;7.30;;;4.90;97.80;;;;;;6374078;22;20708;-87
2024/04/19 05:58:30;;;;;;;8.80;7.40;;;4.90;97.70;;;;;;6374459;22;20267;-87
2024/04/19 06:01:02;;;;;;;7.83;6.87;;;4.90;97.70;;;;;;6374536;22;20249;-85
2024/04/19 06:03:30;;;;;;;8.30;7.23;;;4.90;97.70;;;;;;6331651;22;20225;-85
2024/04/19 06:05:59;;;;;;;9.40;7.00;;;4.90;97.70;;;;;;6331462;22;20267;-85
2024/04/19 06:08:27;;;;;;;7.97;6.67;;;5.00;97.50;;;;;;6373520;22;20233;-88
2024/04/19 06:10:56;;;;;;;8.27;6.93;;;5.10;97.70;;;;;;6374206;22;20812;-88
2024/04/19 06:13:25;;;;;;;8.53;6.40;;;5.20;96.80;;;;;;6373726;22;20241;-87
2024/04/19 06:15:53;;;;;;;7.10;6.40;;;5.30;96.90;;;;;;6375082;22;20233;-87
2024/04/19 06:18:25;;;;;;;7.40;6.63;;;5.30;96.70;;;;;;6373810;22;20650;-88
2024/04/19 06:20:53;;;;;;;7.40;6.30;;;5.30;97.00;;;;;;6373995;22;20332;-88
2024/04/19 06:23:22;;;;;;;7.00;6.30;;;5.40;95.90;;;;;;6373870;22;20283;-86
2024/04/19 06:25:52;;;;;;;8.80;7.10;;;5.50;96.40;;;;;;6374814;22;20336;-88
2024/04/19 06:28:20;;;;;;;7.67;6.40;;;5.50;96.10;;;;;;6375057;22;20341;-87
2024/04/19 06:30:49;;;;;;;7.30;5.90;;;5.60;95.80;;;;;;6374969;22;20290;-88
2024/04/19 06:33:17;;;;;;;9.37;6.80;;;5.70;95.90;;;;;;6374483;22;20226;-88
2024/04/19 06:35:49;;;;;;;6.97;6.27;;;5.70;96.00;;;;;;6373750;22;20332;-88
2024/04/19 06:38:17;;;;;;;10.67;6.33;;;5.80;96.00;;;;;;6373924;22;20740;-89
2024/04/19 06:40:46;;;;;;;7.00;6.05;;;5.90;94.80;;;;;;6375397;22;20289;-89
2024/04/19 06:43:16;;;;;;;6.77;6.07;;;6.00;95.30;;;;;;6330847;22;20263;-88
2024/04/19 06:45:44;;;;;;;8.00;6.37;;;6.00;95.30;;;;;;6375709;22;20217;-89
2024/04/19 06:48:13;;;;;;;7.83;6.20;;;6.00;95.30;;;;;;6374140;22;20342;-90
2024/04/19 06:50:42;;;;;;;7.30;6.30;;;6.00;95.10;;;;;;6374362;22;20264;-90
2024/04/19 06:53:13;;;;;;;7.40;6.22;;;5.90;95.30;;;;;;6374225;22;20664;-88
2024/04/19 06:55:41;;;;;;;6.97;5.80;;;6.00;95.30;;;;;;6373659;22;20362;-88
2024/04/19 06:58:10;;;;;;;7.90;6.47;;;6.10;95.30;;;;;;6374207;22;20342;-89
2024/04/19 07:00:40;;;;;;;6.57;5.95;;;6.10;94.80;;;;;;6374088;22;20234;-88
2024/04/19 07:03:09;;;;;;;6.90;6.10;;;6.00;94.50;;;;;;6373443;22;20264;-88
2024/04/19 07:05:37;;;;;;;7.57;5.90;;;6.00;95.30;;;;;;6332499;22;20225;-88
2024/04/19 07:08:09;;;;;;;11.43;6.30;;;6.00;95.00;;;;;;6373894;22;20592;-89
2024/04/19 07:10:42;;;;;;;8.23;6.63;;;5.90;94.80;;;;;;6373210;22;20217;-87
2024/04/19 07:13:11;;;;;;;9.77;6.40;;;5.90;94.80;;;;;;6373978;22;20350;-88
2024/04/19 07:15:40;;;;;;;8.10;6.40;;;6.00;95.30;;;;;;6373983;22;20331;-88
2024/04/19 07:18:09;;;;;;;7.43;6.60;;;6.00;95.30;;;;;;6374852;22;20260;-86
2024/04/19 07:20:37;;;;;;;8.20;6.87;;;6.10;95.30;;;;;;6373787;22;20261;-88
2024/04/19 07:23:06;;;;;;;8.07;6.40;;;6.20;95.30;;;;;;6373796;22;20350;-87
2024/04/19 07:25:35;;;;;;;9.03;6.30;;;6.20;95.30;;;;;;6374760;22;20315;-87
2024/04/19 07:28:07;;;;;;;7.65;6.35;;;6.30;94.70;;;;;;6331230;22;20229;-87
2024/04/19 07:30:35;;;;;;;9.52;6.30;;;6.20;94.50;;;;;;6331153;22;20255;-87
2024/04/19 07:33:04;;;;;;;9.10;6.60;;;6.20;94.50;;;;;;6330550;22;20260;-87
2024/04/19 07:35:33;;;;;;;7.07;6.33;;;6.10;95.10;;;;;;6373831;22;20230;-88
2024/04/19 07:38:02;;;;;;;8.60;6.53;;;6.20;95.30;;;;;;6374302;22;20553;-88
2024/04/19 07:40:31;;;;;;;10.48;6.40;;;6.30;95.30;;;;;;6373626;22;20226;-87
2024/04/19 07:43:00;;;;;;;8.37;6.20;;;6.30;95.40;;;;;;6374312;22;20637;-87
2024/04/19 07:45:31;;;;;;;7.47;6.53;;;6.20;95.30;;;;;;6374365;22;20265;-87
2024/04/19 07:48:00;;;;;;;7.67;5.53;;;6.00;95.50;;;;;;6371323;22;20226;-87
2024/04/19 07:50:28;;;;;;;7.40;6.40;;;6.10;95.30;;;;;;6372798;22;20333;-89
2024/04/19 07:52:58;;;;;;;8.53;6.17;;;5.90;95.80;;;;;;6370160;22;21141;-88
2024/04/19 07:55:27;;;;;;;11.33;6.73;;;5.90;95.80;;;;;;6376306;22;20225;-87
2024/04/19 07:57:55;;;;;;;7.17;6.43;;;6.00;96.10;;;;;;6374312;22;20571;-85
2024/04/19 08:00:24;;;;;;;6.87;6.17;;;5.90;95.40;;;;;;6374055;22;20321;-84
2024/04/19 08:02:56;;;;;;;8.33;6.87;;;6.00;95.30;;;;;;6373858;22;20230;-88
2024/04/19 08:05:25;;;;;;;6.73;5.93;;;6.30;95.30;;;;;;6373987;22;20226;-87
2024/04/19 08:07:54;;;;;;;8.90;6.40;;;6.50;94.60;;;;;;6372332;22;20264;-87
2024/04/19 08:10:24;;;;;;;8.23;6.90;;;6.60;94.90;;;;;;6373484;22;20277;-87
2024/04/19 08:12:52;;;;;;;9.60;6.93;;;6.70;95.40;;;;;;6373246;22;20354;-87
2024/04/19 08:15:21;;;;;;;8.23;6.28;;;6.80;95.40;;;;;;6373823;22;20272;-87
2024/04/19 08:17:50;;;;;;;7.05;6.03;;;7.00;94.30;;;;;;6373465;22;20740;-87
2024/04/19 08:20:22;;;;;;;7.00;6.10;;;7.00;93.60;;;;;;6373264;22;20229;-87
2024/04/19 08:22:50;;;;;;;9.35;6.55;;;7.10;94.10;;;;;;6373046;22;20261;-87
2024/04/19 08:25:19;;;;;;;6.82;6.13;;;7.10;94.00;;;;;;6373496;22;20229;-87
2024/04/19 08:27:48;;;;;;;8.88;6.45;;;7.40;93.50;;;;;;6375615;22;20264;-87
2024/04/19 08:30:16;;;;;;;7.47;6.15;;;7.70;93.30;;;;;;6375925;22;20341;-87
2024/04/19 08:32:45;;;;;;;7.90;5.80;;;7.90;92.50;;;;;;6376118;22;20289;-87
2024/04/19 08:35:14;;;;;;;7.53;5.53;;;8.00;91.70;;;;;;6374801;22;20256;-87
2024/04/19 08:37:45;;;;;;;6.55;5.47;;;8.30;90.30;;;;;;6375768;22;20285;-87
2024/04/19 08:40:15;;;;;;;6.63;5.60;;;8.40;86.50;;;;;;6376447;22;20289;-87
2024/04/19 08:42:43;;;;;;;7.18;5.88;;;8.60;87.50;;;;;;6375237;22;20269;-87
2024/04/19 08:45:15;;;;;;;6.03;4.75;;;8.90;87.00;;;;;;6379116;22;20281;-87
2024/04/19 08:47:47;;;;;;;7.05;5.13;;;8.80;80.80;;;;;;6375430;22;20213;-87
2024/04/19 08:50:15;;;;;;;5.55;4.85;;;8.70;79.40;;;;;;6375408;22;20257;-87
2024/04/19 08:52:48;;;;;;;5.43;4.47;;;8.60;78.00;;;;;;6374056;22;20639;-87
2024/04/19 08:55:17;;;;;;;5.30;4.80;;;8.90;78.70;;;;;;6374708;22;20807;-88
2024/04/19 08:57:47;;;;;;;6.30;4.68;;;9.10;78.90;;;;;;6374744;22;20260;-87
2024/04/19 09:00:13;;;;;;;5.57;4.57;;;9.30;75.30;;;;;;6374313;22;20324;-86
2024/04/19 09:02:41;;;;;;;8.43;5.00;;;9.00;62.70;;;;;;6371770;22;20426;-87
2024/04/19 09:05:10;;;;;;;5.85;4.72;;;8.90;68.10;;;;;;6375931;22;20672;-87
2024/04/19 09:07:39;;;;;;;5.88;4.60;;;8.90;62.50;;;;;;6374648;22;21092;-87
2024/04/19 09:10:12;;;;;;;4.88;4.35;;;8.90;61.00;;;;;;6375622;22;20268;-87
2024/04/19 09:12:41;;;;;;;6.03;4.70;;;8.90;65.30;;;;;;6375287;22;20229;-87
2024/04/19 09:15:10;;;;;;;5.43;4.32;;;9.10;68.60;;;;;;6376270;22;20285;-87
2024/04/19 09:17:38;;;;;;;6.13;3.67;;;9.60;66.00;;;;;;6376279;22;20277;-88
2024/04/19 09:20:09;;;;;;;5.53;4.40;;;9.70;46.60;;;;;;6379755;22;20834;-87
2024/04/19 09:22:38;;;;;;;5.32;4.05;;;10.00;40.60;;;;;;6375259;22;20241;-88
2024/04/19 09:25:07;;;;;;;5.03;3.92;;;10.10;37.40;;;;;;6332786;22;20269;-88
2024/04/19 09:27:39;;;;;;;4.75;4.05;;;10.30;39.80;;;;;;6375747;22;20281;-88
2024/04/19 09:30:10;;;;;;;4.43;3.88;;;11.00;35.10;;;;;;6374796;22;20273;-88
2024/04/19 09:32:39;;;;;;;4.57;4.15;;;11.00;30.90;;;;;;6375418;22;20263;-87
2024/04/19 09:35:09;;;;;;;5.63;4.20;;;10.60;31.10;;;;;;6375193;22;20256;-88
2024/04/19 09:37:39;;;;;;;4.35;3.95;;;10.40;33.80;;;;;;6331142;22;20559;-88
2024/04/19 09:40:10;;;;;;;8.07;4.47;;;10.10;35.40;;;;;;6374727;22;20221;-88
2024/04/19 09:42:42;;;;;;;6.07;4.28;;;10.00;37.00;;;;;;6372995;22;20260;-87
2024/04/19 09:45:12;;;;;;;5.13;4.60;;;9.90;38.10;;;;;;6375091;22;20233;-87
2024/04/19 09:47:42;;;;;;;5.32;4.40;;;9.80;37.90;;;;;;6374634;22;20353;-87
2024/04/19 09:50:14;;;;;;;4.53;4.05;;;9.40;38.50;;;;;;6375139;22;20909;-87
2024/04/19 09:52:47;;;;;;;4.95;3.90;;;9.10;47.60;;;;;;6373792;22;20263;-87
2024/04/19 09:55:20;;;;;;;4.47;3.92;;;9.00;51.40;;;;;;6374081;22;20827;-87
2024/04/19 09:57:52;;;;;;;4.38;3.85;;;8.60;55.00;;;;;;6373222;22;20233;-87
2024/04/19 10:00:23;;;;;;;6.28;4.43;;;8.50;61.10;;;;;;6373795;22;20267;-87
2024/04/19 10:02:52;;;;;;;4.75;4.25;;;8.50;67.80;;;;;;6374401;22;20550;-87
2024/04/19 10:05:21;;;;;;;6.15;3.90;;;8.50;70.10;;;;;;6374832;22;20324;-87
2024/04/19 10:07:51;;;;;;;4.45;3.78;;;8.70;64.30;;;;;;6375296;22;20976;-87
2024/04/19 10:10:20;;;;;;;4.22;3.78;;;9.00;59.60;;;;;;6375062;22;20229;-87
2024/04/19 10:12:51;;;;;;;5.10;3.70;;;8.80;57.50;;;;;;6332363;22;20217;-87
2024/04/19 10:15:22;;;;;;;4.63;4.00;;;8.30;71.30;;;;;;6373838;22;20268;-88
2024/04/19 10:17:51;;;;;;;3.97;3.50;;;7.70;82.20;;;;;;6375529;22;20275;-88
2024/04/19 10:20:21;;;;;;;4.82;3.95;;;7.20;90.10;;;;;;6374285;22;20892;-87
2024/04/19 10:22:52;;;;;;;5.35;4.00;;;7.30;91.70;;;;;;6374708;22;20226;-87
2024/04/19 10:25:23;;;;;;;5.32;4.45;;;7.60;91.50;;;;;;6373958;22;20237;-88
2024/04/19 10:27:52;;;;;;;4.22;3.83;;;8.00;89.90;;;;;;6375484;22;20221;-87
2024/04/19 10:30:21;;;;;;;6.32;4.40;;;8.20;89.80;;;;;;6332063;22;20270;-87
2024/04/19 10:32:53;;;;;;;3.65;3.35;;;8.00;87.80;;;;;;6374723;22;20256;-87
2024/04/19 10:35:23;;;;;;;4.60;3.67;;;7.90;87.60;;;;;;6374177;22;20222;-87
2024/04/19 10:37:51;;;;;;;3.95;3.50;;;7.60;90.20;;;;;;6374754;22;20225;-87
2024/04/19 10:40:22;;;;;;;4.10;3.60;;;7.50;90.10;;;;;;6331113;22;20324;-87
2024/04/19 10:42:50;;;;;;;6.40;3.63;;;7.40;90.20;;;;;;6374457;22;20245;-87
2024/04/19 10:45:23;;;;;;;4.57;3.22;;;7.60;91.10;;;;;;6374238;22;20794;-87
2024/04/19 10:47:52;;;;;;;3.70;3.30;;;7.80;87.50;;;;;;6375119;22;20264;-87
2024/04/19 10:50:20;;;;;;;3.70;3.13;;;7.90;88.30;;;;;;6374520;22;20352;-87
2024/04/19 10:52:49;;;;;;;5.57;3.10;;;8.00;81.90;;;;;;6374025;22;20331;-88
2024/04/19 10:55:18;;;;;;;3.50;3.20;;;8.20;84.80;;;;;;6331175;22;20264;-88
2024/04/19 10:57:46;;;;;;;3.00;2.70;;;8.50;84.00;;;;;;6373155;22;20335;-88
2024/04/19 11:00:15;;;;;;;3.33;2.88;;;8.60;72.50;;;;;;6373303;22;20296;-88
2024/04/19 11:02:46;;;;;;;2.97;2.60;;;8.80;71.60;;;;;;6372729;22;20351;-84
2024/04/19 11:05:15;;;;;;;3.70;2.78;;;9.10;69.70;;;;;;6372795;22;20280;-85
2024/04/19 11:07:41;;;;;;;2.97;2.58;;;9.30;53.90;;;;;;6373480;22;20328;-92
2024/04/19 11:10:10;;;;;;;2.90;2.60;;;9.40;54.60;;;;;;6371282;22;20233;-87
2024/04/19 11:12:39;;;;;;;4.45;2.63;;;9.80;55.10;;;;;;6371332;22;20288;-86
2024/04/19 11:15:08;;;;;;;7.70;4.30;;;9.90;50.20;;;;;;6372220;22;20245;-85
2024/04/19 11:17:37;;;;;;;3.22;2.63;;;9.70;42.00;;;;;;6374633;22;20276;-85
2024/04/19 11:20:09;;;;;;;2.83;2.40;;;9.70;40.00;;;;;;6374046;22;20349;-86
2024/04/19 11:22:39;;;;;;;3.00;2.47;;;9.70;38.60;;;;;;6375991;22;20230;-86
2024/04/19 11:25:08;;;;;;;3.17;2.38;;;9.50;38.00;;;;;;6373439;22;20245;-86
2024/04/19 11:27:38;;;;;;;2.95;2.42;;;9.50;36.10;;;;;;6374602;22;20742;-85
2024/04/19 11:30:10;;;;;;;3.17;2.42;;;9.90;37.60;;;;;;6373750;22;20354;-91
2024/04/19 11:32:40;;;;;;;3.17;2.70;;;9.80;32.50;;;;;;6324633;22;20591;-91
2024/04/19 11:35:12;;;;;;;4.90;2.50;;;9.90;34.00;;;;;;6366858;22;20221;-88
2024/04/19 11:37:40;;;;;;;2.75;2.47;;;9.80;30.40;;;;;;6327145;22;20229;-87
2024/04/19 11:40:21;;;;;;;3.20;2.47;;;9.50;31.30;;;;;;6364574;22;20887;-84
2024/04/19 11:42:47;;;;;;;2.50;2.10;;;9.20;32.90;;;;;;6370905;22;20256;-88
2024/04/19 11:45:15;;;;;;;3.72;2.60;;;8.90;32.80;;;;;;6371294;22;20663;-89
2024/04/19 11:47:44;;;;;;;4.30;2.10;;;8.80;36.40;;;;;;6373647;22;20259;-87
2024/04/19 11:50:16;;;;;;;2.30;2.10;;;8.80;36.60;;;;;;6375043;22;20246;-87
2024/04/19 11:52:44;;;;;;;7.00;2.25;;;8.70;36.00;;;;;;6371659;22;20233;-87
2024/04/19 11:55:13;;;;;;;2.55;2.10;;;8.50;37.50;;;;;;6333378;22;20320;-85
2024/04/19 11:57:43;;;;;;;3.33;2.70;;;8.50;37.70;;;;;;6367500;22;20812;-86
2024/04/19 12:00:12;;;;;;;3.60;2.03;;;8.50;37.90;;;;;;6370788;22;20230;-86
2024/04/19 12:02:41;;;;;;;3.55;2.30;;;8.60;43.80;;;;;;6372840;22;20281;-85
2024/04/19 12:05:10;;;;;;;2.50;1.95;;;8.60;42.30;;;;;;6372569;22;20345;-86
2024/04/19 12:07:41;;;;;;;2.58;2.22;;;8.50;41.90;;;;;;6373194;22;20268;-86
2024/04/19 12:10:10;;;;;;;3.10;2.13;;;8.50;43.10;;;;;;6371323;22;20249;-85
2024/04/19 12:12:38;;;;;;;2.55;2.35;;;8.40;40.10;;;;;;6368174;22;20225;-85
2024/04/19 12:15:07;;;;;;;2.50;2.28;;;8.40;44.80;;;;;;6369051;22;20276;-86
2024/04/19 12:17:36;;;;;;;2.38;2.17;;;8.30;45.00;;;;;;6369889;22;20680;-86
2024/04/19 12:20:05;;;;;;;3.47;2.20;;;8.20;44.80;;;;;;6373083;22;20240;-84
2024/04/19 12:22:34;;;;;;;3.38;2.00;;;7.90;46.60;;;;;;6367673;22;20281;-86
2024/04/19 12:25:06;;;;;;;2.33;2.08;;;7.80;48.40;;;;;;6370555;22;20273;-83
2024/04/19 12:27:35;;;;;;;2.10;1.90;;;7.70;47.60;;;;;;6370973;22;20222;-88
2024/04/19 12:30:04;;;;;;;2.03;1.70;;;7.70;50.40;;;;;;6373601;22;20353;-85
2024/04/19 12:32:32;;;;;;;2.90;1.70;;;7.70;54.60;;;;;;6374634;22;20324;-88
2024/04/19 12:35:01;;;;;;;2.50;1.90;;;7.70;50.70;;;;;;6371892;22;20328;-86
2024/04/19 12:37:29;;;;;;;2.47;2.28;;;7.60;53.80;;;;;;6372893;22;20648;-85
2024/04/19 12:39:59;;;;;;;4.00;2.10;;;7.70;47.20;;;;;;6367999;22;20712;-85
2024/04/19 12:42:30;;;;;;;4.32;1.83;;;7.80;49.20;;;;;;6372096;22;20288;-84
2024/04/19 12:44:59;;;;;;;4.95;2.25;;;8.00;49.60;;;;;;6371189;22;20226;-82
2024/04/19 12:47:28;;;;;;;2.20;2.00;;;7.90;47.40;;;;;;6365950;22;20225;-85
2024/04/19 12:49:56;;;;;;;2.42;2.08;;;7.90;50.50;;;;;;6367064;22;20234;-84
2024/04/19 12:52:25;;;;;;;2.40;2.20;;;7.90;49.80;;;;;;6363766;22;20271;-83
2024/04/19 12:54:54;;;;;;;2.05;1.80;;;7.90;46.70;;;;;;6367942;22;20222;-87
2024/04/19 12:57:23;;;;;;;2.53;2.33;;;7.80;48.80;;;;;;6367612;22;20237;-84
2024/04/19 12:59:54;;;;;;;2.08;1.80;;;7.90;50.70;;;;;;6367353;22;20273;-88
2024/04/19 13:02:24;;;;;;;3.28;1.90;;;8.00;51.90;;;;;;6368343;22;20285;-88
2024/04/19 13:04:53;;;;;;;1.92;1.60;;;7.80;51.20;;;;;;6370887;22;20706;-83
2024/04/19 13:07:21;;;;;;;3.88;1.73;;;7.60;49.50;;;;;;6374613;22;20237;-83
2024/04/19 13:09:50;;;;;;;1.65;1.55;;;7.50;55.30;;;;;;6373946;22;20281;-88